sensor_id;sensor_type;location;lat;lon;timestamp;pressure;altitude;pressure_sealevel;temperature;humidity
25560;BME280;13450;49.374;8.584;2023-01-25T00:01:42;102375.69;;;1.59;100.00
25560;BME280;13450;49.374;8.584;2023-01-25T00:04:07;102374.69;;;1.61;100.00
25560;BME280;13450;49.374;8.584;2023-01-25T00:06:33;102366.75;;;1.61;100.00
25560;BME280;13450;49.374;8.584;2023-01-25T00:08:59;102371.97;;;1.63;100.00
25560;BME280;13450;49.374;8.584;2023-01-25T00:11:25;102366.63;;;1.64;100.00
25560;BME280;13450;49.374;8.584;2023-01-25T00:13:54;102360.47;;;1.64;100.00
25560;BME280;13450;49.374;8.584;2023-01-25T00:16:22;102355.19;;;1.64;100.00
25560;BME280;13450;49.374;8.584;2023-01-25T00:18:48;102341.97;;;1.64;100.00
25560;BME280;13450;49.374;8.584;2023-01-25T00:21:20;102341.06;;;1.65;100.00
25560;BME280;13450;49.374;8.584;2023-01-25T00:23:46;102343.78;;;1.63;100.00
25560;BME280;13450;49.374;8.584;2023-01-25T00:26:12;102348.19;;;1.63;100.00
25560;BME280;13450;49.374;8.584;2023-01-25T00:28:38;102353.47;;;1.63;100.00
25560;BME280;13450;49.374;8.584;2023-01-25T00:31:08;102347.34;;;1.62;100.00
25560;BME280;13450;49.374;8.584;2023-01-25T00:36:41;102337.78;;;1.60;100.00
25560;BME280;13450;49.374;8.584;2023-01-25T00:39:12;102341.22;;;1.62;100.00
25560;BME280;13450;49.374;8.584;2023-01-25T00:41:38;102340.53;;;1.58;100.00
25560;BME280;13450;49.374;8.584;2023-01-25T00:44:06;102339.53;;;1.61;100.00
25560;BME280;13450;49.374;8.584;2023-01-25T00:46:31;102333.31;;;1.62;100.00
25560;BME280;13450;49.374;8.584;2023-01-25T00:48:57;102328.88;;;1.62;100.00
25560;BME280;13450;49.374;8.584;2023-01-25T00:51:23;102330.66;;;1.62;100.00
25560;BME280;13450;49.374;8.584;2023-01-25T00:53:51;102324.53;;;1.61;100.00
25560;BME280;13450;49.374;8.584;2023-01-25T00:56:16;102326.22;;;1.62;100.00
25560;BME280;13450;49.374;8.584;2023-01-25T00:58:42;102322.81;;;1.60;100.00
25560;BME280;13450;49.374;8.584;2023-01-25T01:01:07;102314.91;;;1.60;100.00
25560;BME280;13450;49.374;8.584;2023-01-25T01:03:33;102323.69;;;1.61;100.00
25560;BME280;13450;49.374;8.584;2023-01-25T01:06:09;102322.06;;;1.58;100.00
25560;BME280;13450;49.374;8.584;2023-01-25T01:08:38;102319.44;;;1.58;100.00
25560;BME280;13450;49.374;8.584;2023-01-25T01:11:05;102321.13;;;1.59;100.00
25560;BME280;13450;49.374;8.584;2023-01-25T01:13:31;102308.69;;;1.61;100.00
25560;BME280;13450;49.374;8.584;2023-01-25T01:15:59;102314.81;;;1.62;100.00
25560;BME280;13450;49.374;8.584;2023-01-25T01:18:27;102306.84;;;1.63;100.00
25560;BME280;13450;49.374;8.584;2023-01-25T01:20:53;102304.88;;;1.67;100.00
25560;BME280;13450;49.374;8.584;2023-01-25T01:23:19;102297.81;;;1.67;100.00
25560;BME280;13450;49.374;8.584;2023-01-25T01:25:47;102297.81;;;1.67;100.00
25560;BME280;13450;49.374;8.584;2023-01-25T01:28:17;102299.53;;;1.68;100.00
25560;BME280;13450;49.374;8.584;2023-01-25T01:30:44;102297.63;;;1.70;100.00
25560;BME280;13450;49.374;8.584;2023-01-25T01:33:12;102301.22;;;1.69;100.00
25560;BME280;13450;49.374;8.584;2023-01-25T01:35:37;102303.25;;;1.64;100.00
25560;BME280;13450;49.374;8.584;2023-01-25T01:38:03;102313.13;;;1.61;100.00
25560;BME280;13450;49.374;8.584;2023-01-25T01:40:30;102308.00;;;1.58;100.00
25560;BME280;13450;49.374;8.584;2023-01-25T01:43:04;102302.94;;;1.53;100.00
25560;BME280;13450;49.374;8.584;2023-01-25T01:48:59;102313.34;;;1.56;100.00
25560;BME280;13450;49.374;8.584;2023-01-25T01:51:07;102302.81;;;1.56;100.00
25560;BME280;13450;49.374;8.584;2023-01-25T01:53:43;102311.59;;;1.56;100.00
25560;BME280;13450;49.374;8.584;2023-01-25T01:56:13;102309.97;;;1.54;100.00
25560;BME280;13450;49.374;8.584;2023-01-25T01:58:42;102304.56;;;1.55;100.00
25560;BME280;13450;49.374;8.584;2023-01-25T02:01:09;102306.31;;;1.56;100.00
25560;BME280;13450;49.374;8.584;2023-01-25T02:03:35;102307.22;;;1.55;100.00
25560;BME280;13450;49.374;8.584;2023-01-25T02:06:10;102300.16;;;1.56;100.00
25560;BME280;13450;49.374;8.584;2023-01-25T02:08:37;102298.31;;;1.58;100.00
25560;BME280;13450;49.374;8.584;2023-01-25T02:11:05;102296.44;;;1.60;100.00
25560;BME280;13450;49.374;8.584;2023-01-25T02:13:31;102301.72;;;1.60;100.00
25560;BME280;13450;49.374;8.584;2023-01-25T02:15:57;102294.53;;;1.62;100.00
25560;BME280;13450;49.374;8.584;2023-01-25T02:18:25;102294.53;;;1.62;100.00
25560;BME280;13450;49.374;8.584;2023-01-25T02:20:52;102297.19;;;1.62;100.00
25560;BME280;13450;49.374;8.584;2023-01-25T02:23:35;102297.03;;;1.65;100.00
25560;BME280;13450;49.374;8.584;2023-01-25T02:26:08;102295.06;;;1.69;100.00
25560;BME280;13450;49.374;8.584;2023-01-25T02:28:40;102298.66;;;1.68;100.00
25560;BME280;13450;49.374;8.584;2023-01-25T02:31:08;102291.59;;;1.68;100.00
25560;BME280;13450;49.374;8.584;2023-01-25T02:33:34;102286.31;;;1.68;100.00
25560;BME280;13450;49.374;8.584;2023-01-25T02:36:15;102287.25;;;1.67;100.00
25560;BME280;13450;49.374;8.584;2023-01-25T02:38:51;102284.63;;;1.67;100.00
25560;BME280;13450;49.374;8.584;2023-01-25T02:41:33;102285.53;;;1.66;100.00
25560;BME280;13450;49.374;8.584;2023-01-25T02:44:13;102291.75;;;1.65;100.00
25560;BME280;13450;49.374;8.584;2023-01-25T02:46:39;102283.84;;;1.65;100.00
25560;BME280;13450;49.374;8.584;2023-01-25T02:49:07;102287.41;;;1.64;100.00
25560;BME280;13450;49.374;8.584;2023-01-25T02:51:37;102282.28;;;1.61;100.00
25560;BME280;13450;49.374;8.584;2023-01-25T02:54:06;102286.81;;;1.59;100.00
25560;BME280;13450;49.374;8.584;2023-01-25T02:56:32;102284.16;;;1.59;100.00
25560;BME280;13450;49.374;8.584;2023-01-25T02:58:58;102278.91;;;1.59;100.00
25560;BME280;13450;49.374;8.584;2023-01-25T03:01:23;102280.75;;;1.57;100.00
25560;BME280;13450;49.374;8.584;2023-01-25T03:03:49;102278.28;;;1.54;100.00
25560;BME280;13450;49.374;8.584;2023-01-25T03:06:15;102279.19;;;1.53;100.00
25560;BME280;13450;49.374;8.584;2023-01-25T03:08:40;102276.75;;;1.50;100.00
25560;BME280;13450;49.374;8.584;2023-01-25T03:11:08;102284.81;;;1.47;100.00
25560;BME280;13450;49.374;8.584;2023-01-25T03:13:34;102278.78;;;1.45;100.00
25560;BME280;13450;49.374;8.584;2023-01-25T03:16:05;102271.00;;;1.41;100.00
25560;BME280;13450;49.374;8.584;2023-01-25T03:18:31;102272.84;;;1.39;100.00
25560;BME280;13450;49.374;8.584;2023-01-25T03:21:18;102276.50;;;1.37;100.00
25560;BME280;13450;49.374;8.584;2023-01-25T03:23:46;102280.16;;;1.34;100.00
25560;BME280;13450;49.374;8.584;2023-01-25T03:28:42;102276.75;;;1.32;100.00
25560;BME280;13450;49.374;8.584;2023-01-25T03:31:09;102274.03;;;1.34;100.00
25560;BME280;13450;49.374;8.584;2023-01-25T03:33:35;102273.19;;;1.33;100.00
25560;BME280;13450;49.374;8.584;2023-01-25T03:36:00;102265.34;;;1.32;100.00
25560;BME280;13450;49.374;8.584;2023-01-25T03:38:26;102266.28;;;1.30;100.00
25560;BME280;13450;49.374;8.584;2023-01-25T03:40:51;102265.34;;;1.32;100.00
25560;BME280;13450;49.374;8.584;2023-01-25T03:43:19;102269.84;;;1.29;100.00
25560;BME280;13450;49.374;8.584;2023-01-25T03:45:45;102269.84;;;1.29;100.00
25560;BME280;13450;49.374;8.584;2023-01-25T03:48:13;102275.22;;;1.28;100.00
25560;BME280;13450;49.374;8.584;2023-01-25T03:50:39;102277.06;;;1.26;100.00
25560;BME280;13450;49.374;8.584;2023-01-25T03:53:04;102271.78;;;1.26;100.00
25560;BME280;13450;49.374;8.584;2023-01-25T03:55:41;102272.88;;;1.22;100.00
25560;BME280;13450;49.374;8.584;2023-01-25T03:58:07;102272.09;;;1.20;100.00
25560;BME280;13450;49.374;8.584;2023-01-25T04:00:32;102274.81;;;1.18;100.00
25560;BME280;13450;49.374;8.584;2023-01-25T04:02:59;102277.53;;;1.16;100.00
25560;BME280;13450;49.374;8.584;2023-01-25T04:05:24;102278.47;;;1.15;100.00
25560;BME280;13450;49.374;8.584;2023-01-25T04:07:49;102268.84;;;1.14;100.00
25560;BME280;13450;49.374;8.584;2023-01-25T04:10:15;102277.72;;;1.13;100.00
25560;BME280;13450;49.374;8.584;2023-01-25T04:12:40;102277.72;;;1.13;100.00
25560;BME280;13450;49.374;8.584;2023-01-25T04:15:06;102273.44;;;1.11;100.00
25560;BME280;13450;49.374;8.584;2023-01-25T04:17:31;102272.56;;;1.10;100.00
25560;BME280;13450;49.374;8.584;2023-01-25T04:19:56;102270.88;;;1.09;100.00
25560;BME280;13450;49.374;8.584;2023-01-25T04:22:22;102260.31;;;1.09;100.00
25560;BME280;13450;49.374;8.584;2023-01-25T04:24:47;102266.63;;;1.07;100.00
25560;BME280;13450;49.374;8.584;2023-01-25T04:27:15;102263.88;;;1.08;100.00
25560;BME280;13450;49.374;8.584;2023-01-25T04:29:40;102253.50;;;1.05;100.00
25560;BME280;13450;49.374;8.584;2023-01-25T04:32:06;102256.13;;;1.05;100.00
25560;BME280;13450;49.374;8.584;2023-01-25T04:34:31;102263.09;;;1.06;100.00
25560;BME280;13450;49.374;8.584;2023-01-25T04:36:56;102267.44;;;1.07;100.00
25560;BME280;13450;49.374;8.584;2023-01-25T04:39:21;102254.34;;;1.06;100.00
25560;BME280;13450;49.374;8.584;2023-01-25T04:41:47;102252.56;;;1.06;100.00
25560;BME280;13450;49.374;8.584;2023-01-25T04:44:12;102252.56;;;1.06;100.00
25560;BME280;13450;49.374;8.584;2023-01-25T04:46:42;102255.19;;;1.06;100.00
25560;BME280;13450;49.374;8.584;2023-01-25T04:49:08;102248.91;;;1.09;100.00
25560;BME280;13450;49.374;8.584;2023-01-25T04:51:33;102252.41;;;1.09;100.00
25560;BME280;13450;49.374;8.584;2023-01-25T04:53:58;102249.84;;;1.08;100.00
25560;BME280;13450;49.374;8.584;2023-01-25T04:56:26;102249.00;;;1.07;100.00
25560;BME280;13450;49.374;8.584;2023-01-25T04:58:51;102246.34;;;1.07;100.00
25560;BME280;13450;49.374;8.584;2023-01-25T05:01:19;102246.34;;;1.07;100.00
25560;BME280;13450;49.374;8.584;2023-01-25T05:03:44;102251.63;;;1.07;100.00
25560;BME280;13450;49.374;8.584;2023-01-25T05:06:10;102249.94;;;1.06;100.00
25560;BME280;13450;49.374;8.584;2023-01-25T05:08:35;102248.22;;;1.05;100.00
25560;BME280;13450;49.374;8.584;2023-01-25T05:11:00;102239.38;;;1.06;100.00
25560;BME280;13450;49.374;8.584;2023-01-25T05:13:26;102249.16;;;1.04;100.00
25560;BME280;13450;49.374;8.584;2023-01-25T05:15:51;102243.09;;;1.02;100.00
25560;BME280;13450;49.374;8.584;2023-01-25T05:18:16;102247.63;;;1.00;100.00
25560;BME280;13450;49.374;8.584;2023-01-25T05:20:43;102245.88;;;0.99;100.00
25560;BME280;13450;49.374;8.584;2023-01-25T05:23:08;102241.53;;;0.98;100.00
25560;BME280;13450;49.374;8.584;2023-01-25T05:25:35;102244.19;;;0.98;100.00
25560;BME280;13450;49.374;8.584;2023-01-25T05:30:49;102239.69;;;1.00;100.00
25560;BME280;13450;49.374;8.584;2023-01-25T05:33:14;102243.25;;;0.99;100.00
25560;BME280;13450;49.374;8.584;2023-01-25T05:35:42;102238.84;;;0.99;100.00
25560;BME280;13450;49.374;8.584;2023-01-25T05:38:08;102238.16;;;0.96;100.00
25560;BME280;13450;49.374;8.584;2023-01-25T05:40:36;102234.72;;;0.94;100.00
25560;BME280;13450;49.374;8.584;2023-01-25T05:43:01;102233.88;;;0.93;100.00
25560;BME280;13450;49.374;8.584;2023-01-25T05:45:31;102226.81;;;0.94;100.00
25560;BME280;13450;49.374;8.584;2023-01-25T05:47:57;102222.47;;;0.93;100.00
25560;BME280;13450;49.374;8.584;2023-01-25T05:50:23;102216.34;;;0.92;100.00
25560;BME280;13450;49.374;8.584;2023-01-25T05:52:49;102199.59;;;0.93;100.00
25560;BME280;13450;49.374;8.584;2023-01-25T05:55:14;102203.06;;;0.94;100.00
25560;BME280;13450;49.374;8.584;2023-01-25T05:57:40;102202.13;;;0.95;100.00
25560;BME280;13450;49.374;8.584;2023-01-25T06:00:06;102205.56;;;0.97;100.00
25560;BME280;13450;49.374;8.584;2023-01-25T06:02:31;102197.72;;;0.95;100.00
25560;BME280;13450;49.374;8.584;2023-01-25T06:04:57;102195.09;;;0.95;100.00
25560;BME280;13450;49.374;8.584;2023-01-25T06:07:23;102199.69;;;0.91;100.00
25560;BME280;13450;49.374;8.584;2023-01-25T06:09:48;102207.81;;;0.87;100.00
25560;BME280;13450;49.374;8.584;2023-01-25T06:12:14;102202.63;;;0.85;100.00
25560;BME280;13450;49.374;8.584;2023-01-25T06:14:40;102194.88;;;0.82;100.00
25560;BME280;13450;49.374;8.584;2023-01-25T06:17:08;102197.66;;;0.79;100.00
25560;BME280;13450;49.374;8.584;2023-01-25T06:19:33;102198.59;;;0.78;100.00
25560;BME280;13450;49.374;8.584;2023-01-25T06:21:58;102204.16;;;0.72;100.00
25560;BME280;13450;49.374;8.584;2023-01-25T06:24:24;102209.44;;;0.72;100.00
25560;BME280;13450;49.374;8.584;2023-01-25T06:26:49;102196.25;;;0.72;100.00
25560;BME280;13450;49.374;8.584;2023-01-25T06:29:14;102195.50;;;0.70;100.00
25560;BME280;13450;49.374;8.584;2023-01-25T06:31:40;102201.69;;;0.69;100.00
25560;BME280;13450;49.374;8.584;2023-01-25T06:34:05;102202.59;;;0.68;100.00
25560;BME280;13450;49.374;8.584;2023-01-25T06:36:32;102201.78;;;0.67;100.00
25560;BME280;13450;49.374;8.584;2023-01-25T06:38:57;102208.75;;;0.68;100.00
25560;BME280;13450;49.374;8.584;2023-01-25T06:41:22;102207.13;;;0.65;100.00
25560;BME280;13450;49.374;8.584;2023-01-25T06:43:51;102212.47;;;0.64;100.00
25560;BME280;13450;49.374;8.584;2023-01-25T06:46:17;102207.19;;;0.64;100.00
25560;BME280;13450;49.374;8.584;2023-01-25T06:48:44;102206.44;;;0.62;100.00
25560;BME280;13450;49.374;8.584;2023-01-25T06:51:11;102217.81;;;0.62;100.00
25560;BME280;13450;49.374;8.584;2023-01-25T06:53:40;102211.63;;;0.63;100.00
25560;BME280;13450;49.374;8.584;2023-01-25T06:58:36;102213.31;;;0.64;100.00
25560;BME280;13450;49.374;8.584;2023-01-25T07:01:09;102213.31;;;0.64;100.00
25560;BME280;13450;49.374;8.584;2023-01-25T07:03:39;102209.91;;;0.62;100.00
25560;BME280;13450;49.374;8.584;2023-01-25T07:06:07;102212.72;;;0.59;100.00
25560;BME280;13450;49.374;8.584;2023-01-25T07:08:34;102210.91;;;0.60;100.00
25560;BME280;13450;49.374;8.584;2023-01-25T07:11:04;102206.50;;;0.60;100.00
25560;BME280;13450;49.374;8.584;2023-01-25T07:13:32;102206.50;;;0.60;100.00
25560;BME280;13450;49.374;8.584;2023-01-25T07:16:03;102204.81;;;0.59;100.00
25560;BME280;13450;49.374;8.584;2023-01-25T07:18:29;102200.91;;;0.67;100.00
25560;BME280;13450;49.374;8.584;2023-01-25T07:21:02;102195.56;;;0.68;100.00
25560;BME280;13450;49.374;8.584;2023-01-25T07:23:29;102187.72;;;0.67;100.00
25560;BME280;13450;49.374;8.584;2023-01-25T07:25:56;102191.91;;;0.71;100.00
25560;BME280;13450;49.374;8.584;2023-01-25T07:28:22;102186.66;;;0.71;100.00
25560;BME280;13450;49.374;8.584;2023-01-25T07:30:47;102199.59;;;0.75;100.00
25560;BME280;13450;49.374;8.584;2023-01-25T07:33:13;102202.16;;;0.77;100.00
25560;BME280;13450;49.374;8.584;2023-01-25T07:35:39;102199.53;;;0.77;100.00
25560;BME280;13450;49.374;8.584;2023-01-25T07:38:05;102200.50;;;0.74;100.00
25560;BME280;13450;49.374;8.584;2023-01-25T07:40:30;102201.53;;;0.72;100.00
25560;BME280;13450;49.374;8.584;2023-01-25T07:42:56;102203.25;;;0.73;100.00
25560;BME280;13450;49.374;8.584;2023-01-25T07:45:22;102197.97;;;0.73;100.00
25560;BME280;13450;49.374;8.584;2023-01-25T07:47:54;102196.19;;;0.73;100.00
25560;BME280;13450;49.374;8.584;2023-01-25T07:50:19;102204.03;;;0.75;100.00
25560;BME280;13450;49.374;8.584;2023-01-25T07:52:45;102197.03;;;0.74;100.00
25560;BME280;13450;49.374;8.584;2023-01-25T07:55:11;102196.19;;;0.73;100.00
25560;BME280;13450;49.374;8.584;2023-01-25T07:57:36;102197.03;;;0.74;100.00
25560;BME280;13450;49.374;8.584;2023-01-25T08:00:02;102192.59;;;0.74;100.00
25560;BME280;13450;49.374;8.584;2023-01-25T08:02:28;102195.16;;;0.76;100.00
25560;BME280;13450;49.374;8.584;2023-01-25T08:04:55;102202.00;;;0.80;100.00
25560;BME280;13450;49.374;8.584;2023-01-25T08:07:26;102199.97;;;0.85;100.00
25560;BME280;13450;49.374;8.584;2023-01-25T08:09:52;102194.56;;;0.88;100.00
25560;BME280;13450;49.374;8.584;2023-01-25T08:12:17;102195.34;;;0.90;100.00
25560;BME280;13450;49.374;8.584;2023-01-25T08:14:44;102201.31;;;0.94;100.00
25560;BME280;13450;49.374;8.584;2023-01-25T08:17:09;102210.22;;;0.91;100.00
25560;BME280;13450;49.374;8.584;2023-01-25T08:19:34;102198.81;;;0.91;100.00
25560;BME280;13450;49.374;8.584;2023-01-25T08:22:00;102198.75;;;0.93;100.00
25560;BME280;13450;49.374;8.584;2023-01-25T08:24:25;102197.03;;;0.91;100.00
25560;BME280;13450;49.374;8.584;2023-01-25T08:26:50;102202.94;;;0.97;100.00
25560;BME280;13450;49.374;8.584;2023-01-25T08:29:16;102201.06;;;0.99;100.00
25560;BME280;13450;49.374;8.584;2023-01-25T08:31:42;102192.22;;;1.00;100.00
25560;BME280;13450;49.374;8.584;2023-01-25T08:34:09;102187.66;;;1.03;100.00
25560;BME280;13450;49.374;8.584;2023-01-25T08:36:35;102184.94;;;1.05;100.00
25560;BME280;13450;49.374;8.584;2023-01-25T08:39:03;102186.63;;;1.06;100.00
25560;BME280;13450;49.374;8.584;2023-01-25T08:41:30;102184.75;;;1.08;100.00
25560;BME280;13450;49.374;8.584;2023-01-25T08:43:56;102189.88;;;1.11;100.00
25560;BME280;13450;49.374;8.584;2023-01-25T08:46:24;102188.72;;;1.17;100.00
25560;BME280;13450;49.374;8.584;2023-01-25T08:48:54;102185.81;;;1.22;100.00
25560;BME280;13450;49.374;8.584;2023-01-25T08:51:20;102180.38;;;1.25;100.00
25560;BME280;13450;49.374;8.584;2023-01-25T08:53:46;102175.09;;;1.25;100.00
25560;BME280;13450;49.374;8.584;2023-01-25T08:56:13;102175.97;;;1.25;100.00
25560;BME280;13450;49.374;8.584;2023-01-25T08:58:44;102177.16;;;1.20;100.00
25560;BME280;13450;49.374;8.584;2023-01-25T09:01:11;102166.75;;;1.16;100.00
25560;BME280;13450;49.374;8.584;2023-01-25T09:03:39;102167.06;;;1.10;100.00
25560;BME280;13450;49.374;8.584;2023-01-25T09:06:05;102164.59;;;1.07;100.00
25560;BME280;13450;49.374;8.584;2023-01-25T09:08:32;102162.75;;;1.09;100.00
25560;BME280;13450;49.374;8.584;2023-01-25T09:11:05;102163.34;;;1.14;100.00
25560;BME280;13450;49.374;8.584;2023-01-25T09:13:30;102156.28;;;1.15;100.00
25560;BME280;13450;49.374;8.584;2023-01-25T09:16:03;102161.47;;;1.16;100.00
25560;BME280;13450;49.374;8.584;2023-01-25T09:18:29;102156.38;;;1.13;100.00
25560;BME280;13450;49.374;8.584;2023-01-25T09:20:55;102155.44;;;1.14;100.00
25560;BME280;13450;49.374;8.584;2023-01-25T09:23:21;102157.94;;;1.17;100.00
25560;BME280;13450;49.374;8.584;2023-01-25T09:25:54;102158.69;;;1.20;100.00
25560;BME280;13450;49.374;8.584;2023-01-25T09:28:19;102149.91;;;1.19;100.00
25560;BME280;13450;49.374;8.584;2023-01-25T09:30:45;102152.31;;;1.24;100.00
25560;BME280;13450;49.374;8.584;2023-01-25T09:33:10;102147.03;;;1.24;100.00
25560;BME280;13450;49.374;8.584;2023-01-25T09:35:46;102155.41;;;1.32;100.00
25560;BME280;13450;49.374;8.584;2023-01-25T09:38:11;102155.06;;;1.38;100.00
25560;BME280;13450;49.374;8.584;2023-01-25T09:40:37;102154.75;;;1.45;100.00
25560;BME280;13450;49.374;8.584;2023-01-25T09:45:54;102166.66;;;1.52;100.00
25560;BME280;13450;49.374;8.584;2023-01-25T09:51:21;102162.91;;;1.56;100.00
25560;BME280;13450;49.374;8.584;2023-01-25T09:53:52;102159.59;;;1.52;100.00
25560;BME280;13450;49.374;8.584;2023-01-25T09:56:22;102161.63;;;1.47;100.00
25560;BME280;13450;49.374;8.584;2023-01-25T09:58:52;102159.06;;;1.46;100.00
25560;BME280;13450;49.374;8.584;2023-01-25T10:03:57;102152.84;;;1.47;100.00
25560;BME280;13450;49.374;8.584;2023-01-25T10:06:34;102155.25;;;1.51;100.00
25560;BME280;13450;49.374;8.584;2023-01-25T10:11:44;102145.53;;;1.52;100.00
25560;BME280;13450;49.374;8.584;2023-01-25T10:14:14;102143.50;;;1.57;100.00
25560;BME280;13450;49.374;8.584;2023-01-25T10:22:14;102139.44;;;1.67;100.00
25560;BME280;13450;49.374;8.584;2023-01-25T10:25:05;102123.31;;;1.72;100.00
25560;BME280;13450;49.374;8.584;2023-01-25T10:27:42;102124.94;;;1.75;100.00
25560;BME280;13450;49.374;8.584;2023-01-25T10:32:51;102116.25;;;1.73;100.00
25560;BME280;13450;49.374;8.584;2023-01-25T10:35:23;102114.28;;;1.76;100.00
25560;BME280;13450;49.374;8.584;2023-01-25T10:37:52;102116.06;;;1.76;100.00
25560;BME280;13450;49.374;8.584;2023-01-25T10:40:24;102118.72;;;1.76;100.00
25560;BME280;13450;49.374;8.584;2023-01-25T10:42:59;102112.69;;;1.74;100.00
25560;BME280;13450;49.374;8.584;2023-01-25T10:45:28;102102.47;;;1.67;100.00
25560;BME280;13450;49.374;8.584;2023-01-25T10:48:05;102100.66;;;1.68;100.00
25560;BME280;13450;49.374;8.584;2023-01-25T10:53:34;102100.59;;;1.69;100.00
25560;BME280;13450;49.374;8.584;2023-01-25T10:58:41;102090.53;;;1.76;100.00
25560;BME280;13450;49.374;8.584;2023-01-25T11:01:10;102093.25;;;1.75;100.00
25560;BME280;13450;49.374;8.584;2023-01-25T11:03:37;102079.09;;;1.76;100.00
25560;BME280;13450;49.374;8.584;2023-01-25T11:06:03;102078.00;;;1.80;100.00
25560;BME280;13450;49.374;8.584;2023-01-25T11:10:55;102064.81;;;1.80;100.00
25560;BME280;13450;49.374;8.584;2023-01-25T11:13:24;102060.53;;;1.77;100.00
25560;BME280;13450;49.374;8.584;2023-01-25T11:18:29;102043.59;;;1.81;100.00
25560;BME280;13450;49.374;8.584;2023-01-25T11:23:31;102043.16;;;1.89;100.00
25560;BME280;13450;49.374;8.584;2023-01-25T11:26:18;102034.88;;;1.95;100.00
25560;BME280;13450;49.374;8.584;2023-01-25T11:28:45;102034.72;;;1.99;100.00
25560;BME280;13450;49.374;8.584;2023-01-25T11:31:15;102034.72;;;1.99;100.00
25560;BME280;13450;49.374;8.584;2023-01-25T11:33:41;102026.78;;;1.99;100.00
25560;BME280;13450;49.374;8.584;2023-01-25T11:36:19;102025.63;;;2.03;100.00
25560;BME280;13450;49.374;8.584;2023-01-25T11:47:30;102001.22;;;1.99;100.00
25560;BME280;13450;49.374;8.584;2023-01-25T11:50:16;101991.13;;;2.06;100.00
25560;BME280;13450;49.374;8.584;2023-01-25T11:52:57;101992.66;;;2.10;100.00
25560;BME280;13450;49.374;8.584;2023-01-25T12:00:53;101974.88;;;2.28;100.00
25560;BME280;13450;49.374;8.584;2023-01-25T12:06:36;101970.06;;;2.35;100.00
25560;BME280;13450;49.374;8.584;2023-01-25T12:14:47;101952.31;;;2.37;100.00
25560;BME280;13450;49.374;8.584;2023-01-25T12:20:36;101937.50;;;2.34;100.00
25560;BME280;13450;49.374;8.584;2023-01-25T12:28:49;101915.69;;;2.31;100.00
25560;BME280;13450;49.374;8.584;2023-01-25T12:31:21;101917.22;;;2.35;100.00
25560;BME280;13450;49.374;8.584;2023-01-25T12:33:57;101912.75;;;2.35;100.00
25560;BME280;13450;49.374;8.584;2023-01-25T12:36:30;101904.91;;;2.34;100.00
25560;BME280;13450;49.374;8.584;2023-01-25T12:39:03;101897.94;;;2.33;100.00
25560;BME280;13450;49.374;8.584;2023-01-25T12:41:45;101884.00;;;2.31;100.00
25560;BME280;13450;49.374;8.584;2023-01-25T12:44:30;101887.56;;;2.30;100.00
25560;BME280;13450;49.374;8.584;2023-01-25T12:49:36;101872.09;;;2.24;100.00
25560;BME280;13450;49.374;8.584;2023-01-25T12:52:06;101867.66;;;2.24;100.00
25560;BME280;13450;49.374;8.584;2023-01-25T12:54:43;101866.63;;;2.27;100.00
25560;BME280;13450;49.374;8.584;2023-01-25T13:02:51;101856.06;;;2.27;100.00
25560;BME280;13450;49.374;8.584;2023-01-25T13:11:05;101849.94;;;2.12;100.00
25560;BME280;13450;49.374;8.584;2023-01-25T13:13:31;101847.38;;;2.10;100.00
25560;BME280;13450;49.374;8.584;2023-01-25T13:18:53;101840.22;;;2.12;100.00
25560;BME280;13450;49.374;8.584;2023-01-25T13:24:23;101827.03;;;2.12;100.00
25560;BME280;13450;49.374;8.584;2023-01-25T13:31:59;101827.19;;;2.09;100.00
25560;BME280;13450;49.374;8.584;2023-01-25T13:37:01;101823.69;;;2.08;100.00
25560;BME280;13450;49.374;8.584;2023-01-25T13:42:16;101822.97;;;2.06;100.00
25560;BME280;13450;49.374;8.584;2023-01-25T13:44:44;101823.91;;;2.05;100.00
25560;BME280;13450;49.374;8.584;2023-01-25T13:47:14;101815.13;;;2.05;100.00
25560;BME280;13450;49.374;8.584;2023-01-25T13:49:58;101817.00;;;2.03;100.00
25560;BME280;13450;49.374;8.584;2023-01-25T13:52:26;101817.00;;;2.03;100.00
25560;BME280;13450;49.374;8.584;2023-01-25T13:54:56;101814.56;;;2.00;100.00
25560;BME280;13450;49.374;8.584;2023-01-25T13:57:28;101816.66;;;1.94;100.00
25560;BME280;13450;49.374;8.584;2023-01-25T14:00:12;101800.22;;;1.89;100.00
25560;BME280;13450;49.374;8.584;2023-01-25T14:02:41;101794.28;;;1.86;100.00
25560;BME280;13450;49.374;8.584;2023-01-25T14:05:17;101801.38;;;1.85;100.00
25560;BME280;13450;49.374;8.584;2023-01-25T14:07:45;101798.06;;;1.81;100.00
25560;BME280;13450;49.374;8.584;2023-01-25T14:10:18;101785.88;;;1.79;100.00
25560;BME280;13450;49.374;8.584;2023-01-25T14:12:48;101773.63;;;1.78;100.00
25560;BME280;13450;49.374;8.584;2023-01-25T14:15:21;101769.09;;;1.80;100.00
25560;BME280;13450;49.374;8.584;2023-01-25T14:18:10;101770.81;;;1.81;100.00
25560;BME280;13450;49.374;8.584;2023-01-25T14:20:40;101769.88;;;1.82;100.00
25560;BME280;13450;49.374;8.584;2023-01-25T14:23:19;101761.94;;;1.82;100.00
25560;BME280;13450;49.374;8.584;2023-01-25T14:25:45;101764.69;;;1.80;100.00
25560;BME280;13450;49.374;8.584;2023-01-25T14:28:11;101757.03;;;1.76;100.00
25560;BME280;13450;49.374;8.584;2023-01-25T14:30:39;101760.84;;;1.72;100.00
25560;BME280;13450;49.374;8.584;2023-01-25T14:33:37;101754.97;;;1.66;100.00
25560;BME280;13450;49.374;8.584;2023-01-25T14:36:12;101756.69;;;1.67;100.00
25560;BME280;13450;49.374;8.584;2023-01-25T14:38:40;101751.41;;;1.67;100.00
25560;BME280;13450;49.374;8.584;2023-01-25T14:41:19;101749.81;;;1.65;100.00
25560;BME280;13450;49.374;8.584;2023-01-25T14:43:50;101735.94;;;1.61;100.00
25560;BME280;13450;49.374;8.584;2023-01-25T14:46:36;101742.25;;;1.59;100.00